Time;durP1;ratioP1;P1;durP2;ratioP2;P2;SDS_P1;SDS_P2;PMS_P1;PMS_P2;Temp;Humidity;BMP_temperature;BMP_pressure;BME280_temperature;BME280_humidity;BME280_pressure;Samples;Min_cycle;Max_cycle;Signal;HPM_P1;HPM_P2
2021/06/04 00:00:43;;;;;;;3.45;1.77;;;;;;;7.78;79.92;101772.59;3606794;39;20044;-57
2021/06/04 00:03:18;;;;;;;2.88;2.20;;;;;;;7.72;78.18;101773.69;3604872;39;20058;-57
2021/06/04 00:05:52;;;;;;;3.63;1.77;;;;;;;7.69;77.13;101771.19;3607260;39;20302;-57
2021/06/04 00:08:21;;;;;;;3.00;2.15;;;;;;;7.62;78.06;101767.09;3607021;39;20044;-58
2021/06/04 00:10:55;;;;;;;3.33;2.20;;;;;;;7.59;78.21;101773.25;3606795;39;20064;-57
2021/06/04 00:13:30;;;;;;;2.75;1.98;;;;;;;7.58;78.21;101775.91;3607011;39;20044;-57
2021/06/04 00:16:20;;;;;;;6.57;3.13;;;;;;;7.50;80.06;101777.94;3607061;39;20052;-59
2021/06/04 00:18:49;;;;;;;2.95;2.15;;;;;;;7.43;79.37;101777.31;3606637;39;20059;-59
2021/06/04 00:21:21;;;;;;;3.15;1.85;;;;;;;7.42;79.02;101773.84;3606857;39;20510;-57
2021/06/04 00:23:49;;;;;;;5.70;2.38;;;;;;;7.37;80.34;101772.31;3607083;39;20055;-56
2021/06/04 00:26:16;;;;;;;4.18;2.10;;;;;;;7.25;80.94;101776.16;3606707;39;20051;-55
2021/06/04 00:28:44;;;;;;;2.58;2.13;;;;;;;7.25;80.90;101772.72;3606757;39;20060;-56
2021/06/04 00:31:11;;;;;;;2.88;2.10;;;;;;;7.23;79.52;101774.53;3606885;39;20051;-57
2021/06/04 00:33:39;;;;;;;3.85;2.13;;;;;;;7.23;80.57;101770.19;3606660;39;20051;-56
2021/06/04 00:36:07;;;;;;;2.90;2.22;;;;;;;7.21;79.33;101763.31;3606970;39;20051;-57
2021/06/04 00:38:36;;;;;;;4.90;2.67;;;;;;;7.21;80.38;101774.56;3606917;39;20049;-57
2021/06/04 00:41:08;;;;;;;2.88;2.20;;;;;;;7.18;79.68;101770.34;3605354;39;20097;-57
2021/06/04 00:43:36;;;;;;;2.97;2.17;;;;;;;7.17;79.95;101767.78;3605123;39;20331;-54
2021/06/04 00:46:07;;;;;;;3.20;2.35;;;;;;;7.17;79.34;101771.25;3605717;39;20048;-56
2021/06/04 00:48:37;;;;;;;3.40;2.40;;;;;;;7.17;80.10;101770.41;3605316;39;20051;-56
2021/06/04 00:51:46;;;;;;;3.15;2.45;;;;;;;7.17;80.39;101773.84;3606572;39;20077;-56
2021/06/04 00:54:14;;;;;;;4.63;3.10;;;;;;;7.16;78.18;101773.88;3604932;39;20051;-57
2021/06/04 00:56:46;;;;;;;3.75;2.88;;;;;;;7.14;79.36;101767.88;3604450;39;20054;-53
2021/06/04 00:59:23;;;;;;;2.90;1.88;;;;;;;7.13;79.59;101771.41;3606708;39;20056;-55
2021/06/04 01:01:56;;;;;;;4.28;2.30;;;;;;;7.09;80.22;101767.19;3606586;39;20080;-55
2021/06/04 01:04:26;;;;;;;3.63;2.67;;;;;;;7.10;80.25;101766.28;3606579;39;20075;-56
2021/06/04 01:07:12;;;;;;;;;;;;;;;7.06;81.58;101762.91;3607092;39;20063;-57
2021/06/04 01:10:07;;;;;;;2.63;2.00;;;;;;;7.06;79.81;101755.13;3606632;39;19931;-57
2021/06/04 01:12:46;;;;;;;3.28;1.90;;;;;;;7.06;79.97;101757.72;3606614;39;20128;-57
2021/06/04 01:15:34;;;;;;;2.67;1.88;;;;;;;7.06;82.40;101756.88;3606489;39;20076;-54
2021/06/04 01:18:08;;;;;;;4.95;2.28;;;;;;;7.08;80.34;101752.50;3605339;39;20132;-56
2021/06/04 01:20:44;;;;;;;2.50;1.85;;;;;;;7.08;80.62;101749.88;3606525;39;20044;-55
2021/06/04 01:23:23;;;;;;;3.10;2.40;;;;;;;7.12;82.15;101749.72;3606351;39;20043;-56
2021/06/04 01:25:55;;;;;;;3.35;2.72;;;;;;;7.13;80.03;101754.03;3605419;39;20051;-54
2021/06/04 01:28:29;;;;;;;2.70;2.03;;;;;;;7.15;79.59;101754.81;3605332;39;20144;-56
2021/06/04 01:31:12;;;;;;;4.70;2.65;;;;;;;7.20;79.75;101752.06;3606421;39;20051;-54
2021/06/04 01:33:54;;;;;;;4.30;2.50;;;;;;;7.24;80.64;101745.84;3606702;39;20313;-56
2021/06/04 01:36:30;;;;;;;3.63;2.58;;;;;;;7.26;80.59;101745.78;3606185;39;20083;-56
2021/06/04 01:39:13;;;;;;;4.15;1.90;;;;;;;7.31;79.54;101749.09;3606769;39;20722;-55
2021/06/04 01:41:46;;;;;;;2.95;2.20;;;;;;;7.33;80.26;101752.50;3603222;39;20066;-57
2021/06/04 01:44:31;;;;;;;2.85;2.10;;;;;;;7.36;82.60;101755.84;3606251;39;20044;-56
2021/06/04 01:47:04;;;;;;;3.20;2.60;;;;;;;7.36;81.94;101758.47;3603457;39;20051;-57
2021/06/04 01:49:37;;;;;;;3.67;2.30;;;;;;;7.37;81.07;101759.31;3606367;39;20094;-56
2021/06/04 01:52:16;;;;;;;3.15;1.98;;;;;;;7.40;81.73;101762.63;3605216;39;20051;-56
2021/06/04 01:54:57;;;;;;;4.15;1.90;;;;;;;7.43;81.04;101759.94;3606018;39;20047;-56
2021/06/04 01:57:31;;;;;;;2.67;1.73;;;;;;;7.47;81.54;101765.88;3605130;39;20381;-56
2021/06/04 02:00:01;;;;;;;2.50;1.70;;;;;;;7.51;80.57;101766.63;3605921;39;20043;-57
2021/06/04 02:02:44;;;;;;;5.22;2.45;;;;;;;7.55;81.15;101771.69;3605723;39;20072;-57
2021/06/04 02:05:38;;;;;;;57.17;24.20;;;;;;;7.53;83.97;101763.06;3606589;39;20058;-57
2021/06/04 02:08:11;;;;;;;26.13;12.23;;;;;;;7.60;82.25;101761.97;3607804;39;20051;-54
2021/06/04 02:10:45;;;;;;;10.13;6.28;;;;;;;7.68;82.98;101766.88;3608059;39;20051;-57
2021/06/04 02:13:14;;;;;;;8.55;3.08;;;;;;;7.76;80.53;101764.84;3607762;39;20044;-55
2021/06/04 02:16:00;;;;;;;4.60;3.28;;;;;;;7.77;83.66;101756.13;3605261;39;20056;-55
2021/06/04 02:18:44;;;;;;;3.65;2.85;;;;;;;7.79;86.09;101751.75;3606747;39;20043;-53
2021/06/04 02:21:30;;;;;;;3.92;2.40;;;;;;;7.90;84.31;101752.19;3607402;39;20072;-55
2021/06/04 02:24:28;;;;;;;3.35;2.10;;;;;;;8.02;84.53;101758.69;3606625;39;20045;-51
2021/06/04 02:27:12;;;;;;;11.05;3.42;;;;;;;8.10;85.36;101755.81;3606745;39;20066;-57
2021/06/04 02:29:48;;;;;;;3.50;2.20;;;;;;;8.17;84.36;101752.09;3606053;39;20052;-54
2021/06/04 02:32:22;;;;;;;3.55;2.50;;;;;;;8.25;83.84;101752.63;3607397;39;20046;-58
2021/06/04 02:35:00;;;;;;;4.80;2.80;;;;;;;8.37;81.81;101756.56;3606200;39;20048;-58
2021/06/04 02:37:36;;;;;;;5.80;2.53;;;;;;;8.46;81.73;101759.66;3606343;39;20047;-58
2021/06/04 02:40:24;;;;;;;12.23;7.57;;;;;;;8.60;82.58;101756.50;3607727;39;20397;-59
2021/06/04 02:43:05;;;;;;;45.40;20.38;;;;;;;8.71;84.15;101759.53;3607706;39;20044;-58
2021/06/04 02:45:44;;;;;;;25.15;9.95;;;;;;;8.81;83.77;101760.00;3607533;39;20403;-59
2021/06/04 02:48:17;;;;;;;17.58;9.82;;;;;;;8.92;80.57;101756.97;3607585;39;20059;-57
2021/06/04 02:50:50;;;;;;;11.95;6.05;;;;;;;9.04;82.01;101753.88;3606338;39;20051;-52
2021/06/04 02:53:34;;;;;;;19.55;9.57;;;;;;;9.18;82.37;101750.69;3607618;39;20114;-58
2021/06/04 02:56:31;;;;;;;20.35;9.25;;;;;;;9.31;81.47;101751.88;3605589;39;20040;-56
2021/06/04 02:59:06;;;;;;;9.50;3.55;;;;;;;9.48;84.58;101756.34;3604811;39;20067;-56
2021/06/04 03:01:51;;;;;;;6.43;2.97;;;;;;;9.64;84.77;101753.94;3606702;39;20047;-56
2021/06/04 03:04:19;;;;;;;6.07;3.33;;;;;;;9.79;82.07;101755.88;3606459;39;20055;-57
2021/06/04 03:06:55;;;;;;;5.53;3.40;;;;;;;9.97;81.27;101764.66;3607079;39;20044;-58
2021/06/04 03:09:34;;;;;;;26.80;14.35;;;;;;;10.15;81.33;101760.34;3606126;39;20267;-56
2021/06/04 03:12:22;;;;;;;10.20;5.90;;;;;;;10.33;81.42;101751.66;3606212;39;20056;-56
2021/06/04 03:14:54;;;;;;;6.18;4.20;;;;;;;10.49;81.54;101757.03;3606278;39;20055;-55
2021/06/04 03:17:31;;;;;;;4.88;2.55;;;;;;;10.65;82.00;101749.31;3605784;39;20320;-56
2021/06/04 03:20:00;;;;;;;3.47;2.00;;;;;;;10.83;81.04;101751.03;3607482;39;20168;-56
2021/06/04 03:22:32;;;;;;;5.47;2.53;;;;;;;10.99;79.91;101753.75;3606007;39;20062;-56
2021/06/04 03:25:09;;;;;;;4.28;2.70;;;;;;;11.17;78.72;101751.97;3607291;39;20044;-57
2021/06/04 03:27:37;;;;;;;3.80;2.63;;;;;;;11.33;80.07;101749.41;3606619;39;20042;-55
2021/06/04 03:30:09;;;;;;;3.75;2.58;;;;;;;11.49;78.67;101753.81;3605907;39;20062;-55
2021/06/04 03:32:37;;;;;;;3.50;2.83;;;;;;;11.64;78.46;101754.78;3606174;39;20047;-56
2021/06/04 03:35:08;;;;;;;7.22;2.55;;;;;;;11.82;78.84;101752.09;3606811;39;20104;-54
2021/06/04 03:37:37;;;;;;;2.85;2.13;;;;;;;12.00;80.77;101752.00;3607364;39;20039;-56
2021/06/04 03:40:10;;;;;;;3.60;2.47;;;;;;;12.17;80.76;101751.09;3607264;39;20052;-53
2021/06/04 03:42:38;;;;;;;27.77;15.30;;;;;;;12.37;79.62;101738.66;3606932;39;20044;-57
2021/06/04 03:45:11;;;;;;;71.50;36.17;;;;;;;12.57;80.33;101739.22;3607140;39;20062;-55
2021/06/04 03:47:38;;;;;;;20.02;11.05;;;;;;;12.71;76.28;101741.06;3607205;39;20135;-57
2021/06/04 03:50:09;;;;;;;7.45;5.28;;;;;;;12.89;79.96;101739.19;3605902;39;20058;-57
2021/06/04 03:52:37;;;;;;;5.38;3.35;;;;;;;13.03;76.96;101736.59;3607526;39;20343;-56
2021/06/04 03:55:08;;;;;;;4.63;2.28;;;;;;;13.18;78.20;101742.72;3607143;39;20079;-56
2021/06/04 03:57:37;;;;;;;3.30;2.53;;;;;;;13.35;77.34;101738.31;3606923;39;20059;-56
2021/06/04 04:00:13;;;;;;;3.83;2.28;;;;;;;13.49;77.23;101738.31;3607337;39;20699;-55
2021/06/04 04:02:40;;;;;;;2.97;2.13;;;;;;;13.64;76.76;101741.81;3607158;39;20059;-57
2021/06/04 04:05:10;;;;;;;3.90;2.80;;;;;;;13.82;76.97;101735.41;3606774;39;20058;-51
2021/06/04 04:07:38;;;;;;;4.47;3.00;;;;;;;13.97;75.61;101742.34;3606987;39;20048;-58
2021/06/04 04:10:08;;;;;;;3.17;2.50;;;;;;;14.07;75.99;101734.72;3607157;39;20047;-55
2021/06/04 04:12:37;;;;;;;4.05;2.42;;;;;;;14.20;74.70;101732.19;3605870;39;20071;-58
2021/06/04 04:15:07;;;;;;;3.72;2.90;;;;;;;14.34;74.65;101732.97;3605883;39;20055;-58
2021/06/04 04:17:35;;;;;;;3.40;2.35;;;;;;;14.48;74.28;101723.34;3607282;39;20047;-56
2021/06/04 04:20:04;;;;;;;4.47;2.60;;;;;;;14.60;73.39;101725.22;3606873;39;20043;-56
2021/06/04 04:22:32;;;;;;;4.75;2.55;;;;;;;14.74;73.39;101726.94;3606929;39;20047;-56
2021/06/04 04:25:01;;;;;;;4.57;3.00;;;;;;;14.85;72.14;101724.44;3607258;39;20040;-52
2021/06/04 04:27:28;;;;;;;5.75;3.20;;;;;;;14.96;71.71;101729.84;3605789;39;20048;-56
2021/06/04 04:29:55;;;;;;;4.97;3.60;;;;;;;15.10;71.65;101728.94;3604754;39;20409;-56
2021/06/04 04:32:23;;;;;;;4.57;3.10;;;;;;;15.19;70.51;101711.63;3606823;39;20321;-57
2021/06/04 04:34:51;;;;;;;4.15;3.20;;;;;;;15.28;70.13;101717.13;3605894;39;20155;-55
2021/06/04 04:37:19;;;;;;;3.33;2.45;;;;;;;15.39;69.82;101707.66;3606768;39;20047;-54
2021/06/04 04:39:47;;;;;;;4.32;3.00;;;;;;;15.49;69.25;101719.25;3606790;39;20055;-59
2021/06/04 04:42:20;;;;;;;5.30;2.47;;;;;;;15.60;69.11;101714.06;3607055;39;20411;-57
2021/06/04 04:44:51;;;;;;;5.53;3.35;;;;;;;15.72;68.42;101717.69;3605953;39;20040;-56
2021/06/04 04:47:22;;;;;;;3.72;2.65;;;;;;;15.80;68.21;101710.91;3606528;39;20047;-58
2021/06/04 04:49:50;;;;;;;3.55;2.40;;;;;;;15.93;68.30;101710.88;3607211;39;20075;-60
2021/06/04 04:52:20;;;;;;;3.38;2.22;;;;;;;16.06;67.82;101713.50;3606434;39;20059;-57
2021/06/04 04:54:54;;;;;;;3.63;2.67;;;;;;;16.18;66.68;101707.31;3606528;39;20035;-59
2021/06/04 04:57:24;;;;;;;115.93;54.80;;;;;;;16.29;66.46;101701.28;3606538;39;20124;-58
2021/06/04 04:59:52;;;;;;;159.18;82.97;;;;;;;16.43;66.90;101701.13;3606483;39;20052;-58
2021/06/04 05:02:20;;;;;;;16.73;9.40;;;;;;;16.56;65.76;101703.69;3606738;39;20094;-57
2021/06/04 05:04:50;;;;;;;7.53;3.58;;;;;;;16.64;65.48;101696.88;3606648;39;20349;-58
2021/06/04 05:07:17;;;;;;;3.72;2.40;;;;;;;16.74;65.27;101699.69;3606424;39;20124;-56
2021/06/04 05:09:45;;;;;;;4.25;2.28;;;;;;;16.85;64.49;101697.13;3606795;39;20056;-53
2021/06/04 05:12:12;;;;;;;3.50;2.30;;;;;;;16.97;66.02;101692.69;3606496;39;20164;-56
2021/06/04 05:14:40;;;;;;;3.67;2.58;;;;;;;17.11;65.72;101695.13;3606414;39;20054;-51
2021/06/04 05:17:08;;;;;;;118.68;56.75;;;;;;;17.21;65.74;101697.91;3606337;39;20047;-56
2021/06/04 05:19:38;;;;;;;25.73;15.10;;;;;;;17.34;64.84;101703.94;3606475;39;20056;-58
2021/06/04 05:22:06;;;;;;;8.18;5.00;;;;;;;17.45;64.92;101697.81;3606613;39;20047;-60
2021/06/04 05:24:33;;;;;;;6.85;2.53;;;;;;;17.56;63.85;101695.16;3606080;39;20052;-61
2021/06/04 05:27:01;;;;;;;4.13;2.20;;;;;;;17.70;64.52;101693.25;3605082;39;20051;-59
2021/06/04 05:29:28;;;;;;;3.97;2.00;;;;;;;17.82;63.99;101682.56;3606277;39;20070;-58
2021/06/04 05:31:56;;;;;;;5.32;2.13;;;;;;;17.96;62.90;101681.47;3606241;39;20429;-59
2021/06/04 05:34:23;;;;;;;5.18;2.67;;;;;;;18.05;62.67;101677.25;3606335;39;20043;-58
2021/06/04 05:36:51;;;;;;;4.00;2.28;;;;;;;18.15;61.72;101679.00;3605167;39;20386;-59
2021/06/04 05:39:22;;;;;;;3.13;2.42;;;;;;;18.27;60.38;101674.50;3606466;39;20505;-59
2021/06/04 05:41:54;;;;;;;2.78;2.08;;;;;;;18.42;62.34;101677.72;3606394;39;20044;-59
2021/06/04 05:44:24;;;;;;;3.47;2.38;;;;;;;18.57;63.28;101672.97;3605130;39;20120;-60
2021/06/04 05:46:55;;;;;;;2.97;2.40;;;;;;;18.74;61.58;101677.72;3606483;39;20044;-59
2021/06/04 05:49:22;;;;;;;3.42;2.47;;;;;;;18.86;61.43;101675.88;3606448;39;20164;-59
2021/06/04 05:51:53;;;;;;;4.32;2.35;;;;;;;19.02;61.42;101678.06;3607148;39;20055;-59
2021/06/04 05:54:22;;;;;;;3.15;2.30;;;;;;;19.18;61.88;101675.78;3607613;39;20058;-59
2021/06/04 05:56:49;;;;;;;3.53;2.30;;;;;;;19.29;61.88;101670.41;3607527;39;20044;-59
2021/06/04 05:59:17;;;;;;;3.20;2.42;;;;;;;19.43;60.80;101675.34;3607708;39;20043;-59
2021/06/04 06:01:46;;;;;;;2.92;2.13;;;;;;;19.61;61.90;101675.59;3607730;39;20059;-59
2021/06/04 06:04:16;;;;;;;4.82;2.13;;;;;;;19.73;62.09;101671.00;3607706;39;20067;-60
2021/06/04 06:06:43;;;;;;;2.38;1.60;;;;;;;19.86;59.06;101676.09;3607813;39;20407;-61
2021/06/04 06:09:12;;;;;;;1.60;1.40;;;;;;;20.00;59.01;101672.22;3606809;39;20052;-59
2021/06/04 06:11:40;;;;;;;3.38;2.00;;;;;;;20.12;60.00;101666.63;3607859;39;20048;-59
2021/06/04 06:14:09;;;;;;;3.50;1.75;;;;;;;20.29;58.29;101672.25;3607575;39;20047;-59
2021/06/04 06:16:37;;;;;;;2.35;1.63;;;;;;;20.38;55.21;101660.78;3608252;39;20042;-59
2021/06/04 06:19:07;;;;;;;1.88;1.20;;;;;;;20.50;52.50;101657.03;3607632;39;20055;-59
2021/06/04 06:21:38;;;;;;;2.55;1.30;;;;;;;20.62;54.25;101655.91;3607566;39;20329;-58
2021/06/04 06:24:06;;;;;;;4.32;1.23;;;;;;;20.78;53.98;101657.97;3606025;39;20054;-59
2021/06/04 06:26:33;;;;;;;3.53;1.20;;;;;;;20.86;49.53;101654.63;3607901;39;20322;-59
2021/06/04 06:29:03;;;;;;;1.52;0.70;;;;;;;20.99;46.26;101654.31;3607824;39;20100;-58
2021/06/04 06:31:34;;;;;;;1.15;0.85;;;;;;;21.03;47.63;101655.69;3605551;39;20078;-61
2021/06/04 06:34:03;;;;;;;3.20;1.10;;;;;;;21.19;48.96;101647.97;3607529;39;20067;-59
2021/06/04 06:36:33;;;;;;;2.10;1.13;;;;;;;21.38;49.70;101641.75;3607731;39;20086;-59
2021/06/04 06:39:08;;;;;;;1.63;1.08;;;;;;;21.52;51.88;101646.59;3605447;39;20733;-58
2021/06/04 06:41:37;;;;;;;4.97;1.60;;;;;;;21.64;48.76;101644.56;3607676;39;20050;-59
2021/06/04 06:44:05;;;;;;;4.45;1.55;;;;;;;21.74;52.34;101648.00;3607240;39;20424;-60
2021/06/04 06:46:32;;;;;;;8.30;2.08;;;;;;;21.83;49.88;101651.59;3607634;39;20036;-59
2021/06/04 06:49:00;;;;;;;3.80;1.40;;;;;;;21.88;46.81;101639.50;3607393;39;20054;-59
2021/06/04 06:51:27;;;;;;;1.15;0.88;;;;;;;22.02;45.30;101646.16;3607494;39;20369;-59
2021/06/04 06:53:56;;;;;;;0.90;0.60;;;;;;;22.08;42.48;101652.72;3606312;39;20051;-60
2021/06/04 06:56:24;;;;;;;1.60;0.90;;;;;;;22.13;43.92;101642.47;3607115;39;20050;-59
2021/06/04 06:58:52;;;;;;;2.67;0.80;;;;;;;22.19;40.11;101637.38;3607612;39;20433;-60
2021/06/04 07:01:21;;;;;;;1.65;0.93;;;;;;;22.30;43.48;101646.13;3607278;39;20422;-61
2021/06/04 07:03:48;;;;;;;1.48;0.70;;;;;;;22.35;40.68;101642.00;3605171;39;20058;-60
2021/06/04 07:06:25;;;;;;;1.88;0.80;;;;;;;22.43;38.70;101635.91;3607417;39;20058;-58
2021/06/04 07:08:53;;;;;;;2.38;1.00;;;;;;;22.45;38.62;101637.41;3607174;39;20039;-59
2021/06/04 07:11:23;;;;;;;0.98;0.60;;;;;;;22.58;40.82;101639.69;3607247;39;20055;-58
2021/06/04 07:13:52;;;;;;;1.10;0.60;;;;;;;22.63;40.46;101641.91;3607405;39;20047;-60
2021/06/04 07:16:20;;;;;;;2.25;0.63;;;;;;;22.78;41.66;101636.84;3607277;39;20067;-60
2021/06/04 07:18:52;;;;;;;1.67;0.75;;;;;;;22.87;40.91;101641.25;3605308;39;20059;-58
2021/06/04 07:21:23;;;;;;;0.80;0.65;;;;;;;22.97;37.37;101636.66;3607170;39;20333;-59
2021/06/04 07:23:51;;;;;;;1.63;0.93;;;;;;;23.09;39.63;101639.91;3606985;39;20047;-58
2021/06/04 07:26:19;;;;;;;1.35;0.73;;;;;;;23.05;39.24;101636.72;3606982;39;20299;-58
2021/06/04 07:28:48;;;;;;;1.20;0.70;;;;;;;23.04;39.61;101634.22;3607500;39;20056;-60
2021/06/04 07:31:19;;;;;;;2.35;0.73;;;;;;;23.22;41.65;101637.66;3607401;39;20147;-58
2021/06/04 07:33:50;;;;;;;2.20;0.90;;;;;;;23.32;39.56;101632.19;3605722;39;20051;-59
2021/06/04 07:36:22;;;;;;;1.55;0.65;;;;;;;23.38;37.15;101627.03;3607219;39;20051;-60
2021/06/04 07:38:50;;;;;;;1.75;0.90;;;;;;;23.50;36.44;101630.28;3606765;39;20047;-60
2021/06/04 07:41:17;;;;;;;1.58;0.75;;;;;;;23.61;38.78;101634.47;3607201;39;20310;-61
2021/06/04 07:43:47;;;;;;;2.28;0.93;;;;;;;23.66;37.26;101626.84;3607354;39;20055;-59
2021/06/04 07:46:16;;;;;;;1.10;0.75;;;;;;;23.69;35.65;101624.69;3607315;39;20062;-59
2021/06/04 07:48:44;;;;;;;5.60;0.90;;;;;;;23.81;37.78;101619.88;3605488;39;20396;-60
2021/06/04 07:51:21;;;;;;;3.20;1.00;;;;;;;23.95;39.43;101619.22;3607311;39;20055;-61
2021/06/04 07:53:49;;;;;;;1.50;0.63;;;;;;;23.95;38.53;101621.91;3606969;39;20044;-60
2021/06/04 07:56:17;;;;;;;4.13;0.85;;;;;;;24.11;39.55;101614.91;3606881;39;20044;-60
2021/06/04 07:58:46;;;;;;;6.93;1.20;;;;;;;24.04;37.52;101613.91;3607012;39;20051;-60
2021/06/04 08:01:15;;;;;;;2.28;1.15;;;;;;;24.17;38.08;101617.78;3606471;39;20051;-60
2021/06/04 08:03:44;;;;;;;4.13;0.90;;;;;;;24.32;40.04;101615.25;3604515;39;20059;-60
2021/06/04 08:06:14;;;;;;;1.73;0.80;;;;;;;24.47;37.93;101616.28;3607129;39;20449;-59
2021/06/04 08:08:43;;;;;;;1.15;0.68;;;;;;;24.34;40.41;101620.44;3607554;39;20132;-60
2021/06/04 08:11:20;;;;;;;1.10;0.80;;;;;;;24.50;39.23;101610.63;3606898;39;20052;-59
2021/06/04 08:13:48;;;;;;;3.38;0.70;;;;;;;24.29;35.77;101612.91;3607202;39;20055;-59
2021/06/04 08:16:15;;;;;;;3.33;0.77;;;;;;;24.38;36.94;101605.75;3606932;39;20051;-59
2021/06/04 08:18:43;;;;;;;2.70;1.00;;;;;;;24.68;41.57;101617.59;3605325;39;20052;-59
2021/06/04 08:21:20;;;;;;;1.63;0.90;;;;;;;24.80;35.04;101607.41;3605819;39;20059;-59
2021/06/04 08:23:49;;;;;;;3.22;0.90;;;;;;;24.90;39.81;101605.38;3606583;39;20036;-59
2021/06/04 08:26:20;;;;;;;3.35;0.82;;;;;;;25.09;38.38;101605.00;3607012;39;20060;-60
2021/06/04 08:28:48;;;;;;;8.35;1.20;;;;;;;25.24;38.74;101603.28;3607091;39;20067;-60
2021/06/04 08:31:17;;;;;;;4.00;1.30;;;;;;;25.23;39.04;101604.28;3606689;39;20043;-61
2021/06/04 08:33:45;;;;;;;3.15;0.85;;;;;;;25.39;37.17;101600.69;3607038;39;20083;-60
2021/06/04 08:36:17;;;;;;;6.45;1.20;;;;;;;25.38;35.19;101600.88;3606997;39;20402;-60
2021/06/04 08:38:45;;;;;;;2.03;0.68;;;;;;;25.37;38.26;101599.22;3606736;39;20056;-61
2021/06/04 08:41:18;;;;;;;1.40;0.70;;;;;;;25.64;37.92;101604.09;3607068;39;20051;-59
2021/06/04 08:44:01;;;;;;;0.50;0.47;;;;;;;25.62;34.26;101582.00;3606989;39;20051;-59
2021/06/04 08:46:33;;;;;;;1.30;0.63;;;;;;;25.35;33.33;101582.47;3605318;39;20291;-60
2021/06/04 08:49:16;;;;;;;1.50;0.80;;;;;;;25.48;33.39;101580.88;3607009;39;20398;-59
2021/06/04 08:52:12;;;;;;;1.75;0.77;;;;;;;25.25;33.34;101574.63;3606787;39;20091;-59
2021/06/04 08:54:50;;;;;;;3.28;0.70;;;;;;;25.32;32.70;101574.78;3606506;39;20585;-60
2021/06/04 08:57:49;;;;;;;3.50;0.70;;;;;;;25.62;33.73;101573.13;3604558;39;20048;-61
2021/06/04 09:00:32;;;;;;;4.38;0.90;;;;;;;25.82;35.48;101563.63;3606645;39;20044;-59
2021/06/04 09:03:05;;;;;;;3.22;0.70;;;;;;;25.96;33.66;101572.75;3606481;39;20047;-59
2021/06/04 09:05:38;;;;;;;;;;;;;;;25.82;33.13;101569.00;3607208;39;20055;-60
2021/06/04 09:08:11;;;;;;;4.32;0.80;;;;;;;25.61;32.31;101566.09;3606500;39;19947;-61
2021/06/04 09:10:54;;;;;;;;;;;;;;;25.71;32.50;101561.34;3607264;39;20040;-60
2021/06/04 09:13:29;;;;;;;1.67;0.80;;;;;;;25.87;32.34;101563.94;3607701;39;19979;-59
2021/06/04 09:16:42;;;;;;;3.17;0.73;;;;;;;26.05;33.99;101556.41;3608332;39;20063;-59
2021/06/04 09:19:22;;;;;;;2.38;0.80;;;;;;;26.18;30.47;101555.81;3608055;39;20055;-60
2021/06/04 09:21:51;;;;;;;1.40;0.80;;;;;;;26.29;30.54;101543.81;3608116;39;20425;-58
2021/06/04 09:24:36;;;;;;;0.73;0.50;;;;;;;26.14;29.65;101545.63;3608286;39;20047;-61
2021/06/04 09:27:05;;;;;;;3.97;0.52;;;;;;;26.27;31.11;101554.72;3608217;39;20406;-58
2021/06/04 09:29:33;;;;;;;0.75;0.55;;;;;;;26.44;31.09;101551.91;3607889;39;20055;-59
2021/06/04 09:32:23;;;;;;;1.10;0.80;;;;;;;26.51;27.05;101545.66;3607669;39;20302;-59
2021/06/04 09:35:11;;;;;;;2.20;0.60;;;;;;;26.50;27.04;101538.63;3606181;39;20072;-59
2021/06/04 09:37:39;;;;;;;0.95;0.60;;;;;;;26.56;32.01;101542.41;3608249;39;20055;-60
2021/06/04 09:40:30;;;;;;;1.17;0.60;;;;;;;26.57;27.13;101537.88;3608071;39;20063;-58
2021/06/04 09:43:11;;;;;;;2.13;0.70;;;;;;;26.63;28.64;101537.97;3607964;39;20055;-60
2021/06/04 09:45:52;;;;;;;2.13;0.70;;;;;;;26.91;28.91;101531.94;3607913;39;20044;-60
2021/06/04 09:48:37;;;;;;;1.02;0.52;;;;;;;27.15;29.77;101536.22;3608172;39;20048;-58
2021/06/04 09:51:12;;;;;;;0.70;0.50;;;;;;;27.28;28.70;101531.81;3608081;39;20051;-58
2021/06/04 09:53:41;;;;;;;1.50;0.43;;;;;;;27.34;29.66;101529.41;3607448;39;20116;-60
2021/06/04 09:56:08;;;;;;;1.25;0.50;;;;;;;27.68;30.11;101526.91;3606771;39;20055;-61
2021/06/04 09:59:01;;;;;;;0.82;0.50;;;;;;;27.99;28.47;101523.06;3607707;39;20055;-59
2021/06/04 10:01:47;;;;;;;1.85;0.60;;;;;;;28.18;26.03;101516.19;3607846;39;20048;-61
2021/06/04 10:04:32;;;;;;;1.40;0.70;;;;;;;28.47;28.17;101516.00;3606707;39;20056;-62
2021/06/04 10:07:04;;;;;;;0.98;0.60;;;;;;;28.55;28.57;101509.63;3607795;39;20124;-59
2021/06/04 10:09:39;;;;;;;3.83;0.77;;;;;;;28.63;29.36;101508.63;3607945;39;20105;-59
2021/06/04 10:12:32;;;;;;;3.15;0.50;;;;;;;28.68;27.80;101508.88;3607457;39;20399;-60
2021/06/04 10:15:21;;;;;;;6.75;0.70;;;;;;;28.82;28.43;101505.22;3607331;39;20039;-60
2021/06/04 10:20:34;;;;;;;0.80;0.40;;;;;;;28.78;27.10;101495.88;3606334;39;20145;-60
2021/06/04 10:23:09;;;;;;;2.83;0.85;;;;;;;29.23;28.59;101498.97;3607077;39;20054;-60
2021/06/04 10:26:02;;;;;;;0.80;0.60;;;;;;;29.33;25.21;101492.16;3606518;39;20132;-61
2021/06/04 10:28:44;;;;;;;5.00;0.57;;;;;;;29.27;25.66;101492.97;3607807;39;20133;-61
2021/06/04 10:31:34;;;;;;;2.35;0.57;;;;;;;29.35;27.72;101481.19;3606206;39;20091;-60
2021/06/04 10:34:04;;;;;;;1.27;0.60;;;;;;;29.46;25.88;101483.28;3607304;39;20047;-59
2021/06/04 10:36:39;;;;;;;1.77;1.02;;;;;;;29.19;25.02;101489.63;3607729;39;20318;-60
2021/06/04 10:39:13;;;;;;;1.00;0.70;;;;;;;29.31;25.89;101471.84;3607222;39;20054;-59
2021/06/04 10:42:13;;;;;;;2.55;0.52;;;;;;;29.29;27.48;101471.22;3605777;39;20411;-60
2021/06/04 10:45:13;;;;;;;3.35;0.60;;;;;;;29.57;27.64;101469.22;3606557;39;20099;-59
2021/06/04 10:48:17;;;;;;;1.88;0.50;;;;;;;29.29;25.85;101466.69;3606682;39;20056;-59
2021/06/04 10:50:54;;;;;;;1.63;0.60;;;;;;;29.40;26.66;101461.72;3607221;39;20055;-59
2021/06/04 10:53:44;;;;;;;0.88;0.50;;;;;;;29.65;24.34;101453.88;3607512;39;20043;-59
2021/06/04 10:56:16;;;;;;;1.45;0.70;;;;;;;29.76;24.40;101454.06;3607414;39;20040;-60
2021/06/04 10:59:08;;;;;;;0.82;0.50;;;;;;;29.72;26.70;101446.59;3607704;39;20414;-60
2021/06/04 11:02:02;;;;;;;1.13;0.60;;;;;;;29.81;22.61;101453.44;3607756;39;20043;-61
2021/06/04 11:05:03;;;;;;;1.63;0.60;;;;;;;29.81;23.78;101450.75;3604480;39;20052;-60
2021/06/04 11:07:47;;;;;;;2.75;0.63;;;;;;;29.38;25.24;101443.03;3605153;39;20044;-62
2021/06/04 11:10:36;;;;;;;5.93;1.27;;;;;;;29.73;25.77;101445.59;3607238;39;20446;-61
2021/06/04 11:13:29;;;;;;;1.10;0.57;;;;;;;30.15;25.06;101440.78;3606748;39;20441;-62
2021/06/04 11:16:26;;;;;;;1.73;0.65;;;;;;;30.39;27.12;101442.84;3607510;39;20046;-60
2021/06/04 11:19:09;;;;;;;1.08;0.50;;;;;;;30.50;24.46;101436.75;3596621;39;20129;-61
2021/06/04 11:21:43;;;;;;;1.48;0.50;;;;;;;30.43;23.45;101433.25;3607338;39;20051;-60
2021/06/04 11:24:35;;;;;;;3.50;0.70;;;;;;;30.39;23.10;101426.63;3607082;39;20048;-60
2021/06/04 11:27:02;;;;;;;2.13;0.60;;;;;;;30.61;24.32;101427.97;3606920;39;20035;-60
2021/06/04 11:29:48;;;;;;;2.33;0.70;;;;;;;30.65;23.34;101424.88;3607234;39;20066;-61
2021/06/04 11:32:28;;;;;;;1.33;0.52;;;;;;;30.94;25.41;101418.91;3607224;39;20440;-59
2021/06/04 11:35:10;;;;;;;0.80;0.55;;;;;;;30.97;22.61;101414.97;3606739;39;20054;-60
2021/06/04 11:37:59;;;;;;;2.15;0.70;;;;;;;30.98;23.61;101411.22;3607241;39;20579;-60
2021/06/04 11:40:41;;;;;;;2.38;0.60;;;;;;;31.17;23.88;101402.16;3607204;39;20395;-59
2021/06/04 11:43:14;;;;;;;1.10;0.60;;;;;;;31.14;23.25;101409.88;3606884;39;20062;-60
2021/06/04 11:45:46;;;;;;;0.90;0.60;;;;;;;31.28;22.95;101406.88;3607183;39;20052;-60
2021/06/04 11:48:25;;;;;;;1.53;0.60;;;;;;;31.32;22.22;101402.69;3607526;39;20702;-61
2021/06/04 11:51:14;;;;;;;2.35;0.75;;;;;;;31.10;21.83;101398.69;3607100;39;20289;-62
2021/06/04 11:53:41;;;;;;;1.05;0.60;;;;;;;31.19;22.18;101393.81;3607094;39;20126;-60
2021/06/04 11:56:30;;;;;;;1.85;0.88;;;;;;;31.13;23.78;101390.13;3607009;39;20406;-60
2021/06/04 11:58:57;;;;;;;5.15;0.65;;;;;;;31.30;22.83;101393.16;3607186;39;20055;-60
2021/06/04 12:01:39;;;;;;;1.15;0.50;;;;;;;31.30;21.92;101380.47;3607237;39;20060;-61
2021/06/04 12:04:13;;;;;;;2.20;0.65;;;;;;;31.62;24.81;101380.41;3607084;39;20103;-59